sensor_id;sensor_type;location;lat;lon;timestamp;temperature;humidity
6903;DHT22;20232;49.408;8.702;2022-11-09T05:02:43;11.40;99.90
6903;DHT22;20232;49.408;8.702;2022-11-09T05:05:08;11.40;99.90
6903;DHT22;20232;49.408;8.702;2022-11-09T05:07:34;11.40;99.90
6903;DHT22;20232;49.408;8.702;2022-11-09T05:10:00;11.40;99.90
6903;DHT22;20232;49.408;8.702;2022-11-09T05:12:26;11.50;99.90
6903;DHT22;20232;49.408;8.702;2022-11-09T05:14:51;11.50;99.90
6903;DHT22;20232;49.408;8.702;2022-11-09T05:17:17;11.50;99.90
6903;DHT22;20232;49.408;8.702;2022-11-09T05:19:42;11.40;99.90
6903;DHT22;20232;49.408;8.702;2022-11-09T05:22:08;11.50;99.90
6903;DHT22;20232;49.408;8.702;2022-11-09T05:24:52;11.50;99.90
6903;DHT22;20232;49.408;8.702;2022-11-09T05:27:18;11.50;99.90
6903;DHT22;20232;49.408;8.702;2022-11-09T05:29:43;11.50;99.90
6903;DHT22;20232;49.408;8.702;2022-11-09T05:32:09;11.60;99.90
6903;DHT22;20232;49.408;8.702;2022-11-09T05:34:34;11.60;99.90
6903;DHT22;20232;49.408;8.702;2022-11-09T05:37:00;11.60;99.90
6903;DHT22;20232;49.408;8.702;2022-11-09T05:39:25;11.60;99.90
6903;DHT22;20232;49.408;8.702;2022-11-09T05:41:51;11.70;99.90
6903;DHT22;20232;49.408;8.702;2022-11-09T05:44:16;11.70;99.90
6903;DHT22;20232;49.408;8.702;2022-11-09T05:46:42;11.70;99.90
6903;DHT22;20232;49.408;8.702;2022-11-09T05:49:07;11.70;99.90
6903;DHT22;20232;49.408;8.702;2022-11-09T05:51:33;11.70;99.90
6903;DHT22;20232;49.408;8.702;2022-11-09T05:53:58;11.80;99.90
6903;DHT22;20232;49.408;8.702;2022-11-09T05:56:24;11.80;99.90
6903;DHT22;20232;49.408;8.702;2022-11-09T05:58:50;11.80;99.90
6903;DHT22;20232;49.408;8.702;2022-11-09T06:01:16;11.80;99.90
6903;DHT22;20232;49.408;8.702;2022-11-09T06:03:45;11.80;99.90
6903;DHT22;20232;49.408;8.702;2022-11-09T06:06:13;11.80;99.90
6903;DHT22;20232;49.408;8.702;2022-11-09T06:08:40;11.80;99.90
6903;DHT22;20232;49.408;8.702;2022-11-09T06:11:09;11.80;99.90
6903;DHT22;20232;49.408;8.702;2022-11-09T06:13:36;11.80;99.90
6903;DHT22;20232;49.408;8.702;2022-11-09T06:16:03;11.80;99.90
6903;DHT22;20232;49.408;8.702;2022-11-09T06:18:31;11.80;99.90
6903;DHT22;20232;49.408;8.702;2022-11-09T06:20:59;11.90;99.90
6903;DHT22;20232;49.408;8.702;2022-11-09T06:23:25;12.00;99.90
6903;DHT22;20232;49.408;8.702;2022-11-09T06:26:05;12.00;99.90
6903;DHT22;20232;49.408;8.702;2022-11-09T06:28:31;12.00;99.90
6903;DHT22;20232;49.408;8.702;2022-11-09T06:30:58;12.10;99.90
6903;DHT22;20232;49.408;8.702;2022-11-09T06:33:24;12.00;99.90
6903;DHT22;20232;49.408;8.702;2022-11-09T06:35:50;12.00;99.90
6903;DHT22;20232;49.408;8.702;2022-11-09T06:38:16;12.10;99.90
6903;DHT22;20232;49.408;8.702;2022-11-09T06:40:41;12.10;99.90
6903;DHT22;20232;49.408;8.702;2022-11-09T06:43:08;12.10;99.90
6903;DHT22;20232;49.408;8.702;2022-11-09T06:45:33;12.10;99.90
6903;DHT22;20232;49.408;8.702;2022-11-09T06:48:01;12.20;99.90
6903;DHT22;20232;49.408;8.702;2022-11-09T06:50:29;12.20;99.90
6903;DHT22;20232;49.408;8.702;2022-11-09T06:53:00;12.20;99.90
6903;DHT22;20232;49.408;8.702;2022-11-09T06:55:26;12.30;99.90
6903;DHT22;20232;49.408;8.702;2022-11-09T06:57:52;12.30;99.90
6903;DHT22;20232;49.408;8.702;2022-11-09T07:00:19;12.30;99.90
6903;DHT22;20232;49.408;8.702;2022-11-09T07:02:44;12.20;99.90
6903;DHT22;20232;49.408;8.702;2022-11-09T07:05:10;12.20;99.90
6903;DHT22;20232;49.408;8.702;2022-11-09T07:07:36;12.10;99.90
6903;DHT22;20232;49.408;8.702;2022-11-09T07:10:01;12.10;99.90
6903;DHT22;20232;49.408;8.702;2022-11-09T07:12:27;12.20;99.90
6903;DHT22;20232;49.408;8.702;2022-11-09T07:14:53;12.10;99.90
6903;DHT22;20232;49.408;8.702;2022-11-09T07:17:18;12.20;99.90
6903;DHT22;20232;49.408;8.702;2022-11-09T07:19:44;12.10;99.90
6903;DHT22;20232;49.408;8.702;2022-11-09T07:22:10;12.10;99.90
6903;DHT22;20232;49.408;8.702;2022-11-09T07:24:35;12.20;99.90
6903;DHT22;20232;49.408;8.702;2022-11-09T07:27:01;12.10;99.90
6903;DHT22;20232;49.408;8.702;2022-11-09T07:29:26;12.10;99.90
6903;DHT22;20232;49.408;8.702;2022-11-09T07:31:52;12.00;99.90
6903;DHT22;20232;49.408;8.702;2022-11-09T07:34:18;12.10;99.90
6903;DHT22;20232;49.408;8.702;2022-11-09T07:36:43;12.10;99.90
6903;DHT22;20232;49.408;8.702;2022-11-09T07:39:09;12.10;99.90
6903;DHT22;20232;49.408;8.702;2022-11-09T07:41:34;12.00;99.90
6903;DHT22;20232;49.408;8.702;2022-11-09T07:44:00;12.00;99.90
6903;DHT22;20232;49.408;8.702;2022-11-09T07:46:25;12.00;99.90
6903;DHT22;20232;49.408;8.702;2022-11-09T07:48:51;12.00;99.90
6903;DHT22;20232;49.408;8.702;2022-11-09T07:51:16;12.00;99.90
6903;DHT22;20232;49.408;8.702;2022-11-09T07:53:42;12.00;99.90
6903;DHT22;20232;49.408;8.702;2022-11-09T07:56:08;12.00;99.90
6903;DHT22;20232;49.408;8.702;2022-11-09T07:58:33;12.10;99.90
6903;DHT22;20232;49.408;8.702;2022-11-09T08:01:00;12.10;99.90
6903;DHT22;20232;49.408;8.702;2022-11-09T08:03:26;12.10;99.90
6903;DHT22;20232;49.408;8.702;2022-11-09T08:05:51;12.20;99.90
6903;DHT22;20232;49.408;8.702;2022-11-09T08:08:18;12.20;99.90
6903;DHT22;20232;49.408;8.702;2022-11-09T08:10:44;12.30;99.90
6903;DHT22;20232;49.408;8.702;2022-11-09T08:13:15;12.30;99.90
6903;DHT22;20232;49.408;8.702;2022-11-09T08:15:41;12.30;99.90
6903;DHT22;20232;49.408;8.702;2022-11-09T08:18:10;12.30;99.90
6903;DHT22;20232;49.408;8.702;2022-11-09T08:20:36;12.40;99.90
6903;DHT22;20232;49.408;8.702;2022-11-09T08:23:02;12.50;99.90
6903;DHT22;20232;49.408;8.702;2022-11-09T08:25:28;12.50;99.90
6903;DHT22;20232;49.408;8.702;2022-11-09T08:27:57;12.60;99.90
6903;DHT22;20232;49.408;8.702;2022-11-09T08:30:23;12.60;99.90
6903;DHT22;20232;49.408;8.702;2022-11-09T08:32:49;12.60;99.90
6903;DHT22;20232;49.408;8.702;2022-11-09T08:35:17;12.60;99.90
6903;DHT22;20232;49.408;8.702;2022-11-09T08:37:48;12.70;99.90
6903;DHT22;20232;49.408;8.702;2022-11-09T08:40:17;12.70;99.90
6903;DHT22;20232;49.408;8.702;2022-11-09T08:42:43;12.70;99.90
6903;DHT22;20232;49.408;8.702;2022-11-09T08:45:10;12.80;99.90
6903;DHT22;20232;49.408;8.702;2022-11-09T08:47:35;12.80;99.90
6903;DHT22;20232;49.408;8.702;2022-11-09T08:50:02;12.80;99.90
6903;DHT22;20232;49.408;8.702;2022-11-09T08:52:31;12.90;99.90
6903;DHT22;20232;49.408;8.702;2022-11-09T08:54:57;12.90;99.90
6903;DHT22;20232;49.408;8.702;2022-11-09T08:57:23;12.90;99.90
6903;DHT22;20232;49.408;8.702;2022-11-09T08:59:48;13.00;99.90
6903;DHT22;20232;49.408;8.702;2022-11-09T09:02:14;13.00;99.90
6903;DHT22;20232;49.408;8.702;2022-11-09T09:04:40;13.00;99.90
6903;DHT22;20232;49.408;8.702;2022-11-09T09:07:06;13.10;99.90
6903;DHT22;20232;49.408;8.702;2022-11-09T09:09:32;13.20;99.90
6903;DHT22;20232;49.408;8.702;2022-11-09T09:11:59;13.40;99.90
6903;DHT22;20232;49.408;8.702;2022-11-09T09:14:25;13.50;99.90
6903;DHT22;20232;49.408;8.702;2022-11-09T09:16:51;13.50;99.90
6903;DHT22;20232;49.408;8.702;2022-11-09T09:19:17;13.60;99.90
6903;DHT22;20232;49.408;8.702;2022-11-09T09:21:42;13.70;99.90
6903;DHT22;20232;49.408;8.702;2022-11-09T09:24:08;13.70;99.90
6903;DHT22;20232;49.408;8.702;2022-11-09T09:26:33;13.90;99.90
6903;DHT22;20232;49.408;8.702;2022-11-09T09:28:59;13.90;99.90
6903;DHT22;20232;49.408;8.702;2022-11-09T09:31:25;14.00;99.90
6903;DHT22;20232;49.408;8.702;2022-11-09T09:33:51;14.10;99.90
6903;DHT22;20232;49.408;8.702;2022-11-09T09:36:19;14.20;99.90
6903;DHT22;20232;49.408;8.702;2022-11-09T09:38:45;14.30;99.90
6903;DHT22;20232;49.408;8.702;2022-11-09T09:41:34;14.50;99.90
6903;DHT22;20232;49.408;8.702;2022-11-09T09:44:22;14.50;99.90
6903;DHT22;20232;49.408;8.702;2022-11-09T09:47:06;14.60;99.90
6903;DHT22;20232;49.408;8.702;2022-11-09T09:49:36;14.70;99.90
6903;DHT22;20232;49.408;8.702;2022-11-09T09:52:24;14.80;99.90
6903;DHT22;20232;49.408;8.702;2022-11-09T09:55:03;15.00;99.90
6903;DHT22;20232;49.408;8.702;2022-11-09T09:57:31;15.10;99.90
6903;DHT22;20232;49.408;8.702;2022-11-09T10:00:00;15.10;99.90
6903;DHT22;20232;49.408;8.702;2022-11-09T10:02:33;15.10;99.90
6903;DHT22;20232;49.408;8.702;2022-11-09T10:05:06;15.20;99.90
6903;DHT22;20232;49.408;8.702;2022-11-09T10:07:41;15.20;99.90
6903;DHT22;20232;49.408;8.702;2022-11-09T10:13:05;15.40;99.90
6903;DHT22;20232;49.408;8.702;2022-11-09T10:15:43;15.40;99.90
6903;DHT22;20232;49.408;8.702;2022-11-09T10:18:29;15.40;99.90
6903;DHT22;20232;49.408;8.702;2022-11-09T10:27:05;15.40;99.90
6903;DHT22;20232;49.408;8.702;2022-11-09T10:29:45;15.50;99.90
6903;DHT22;20232;49.408;8.702;2022-11-09T10:37:41;15.30;99.90
6903;DHT22;20232;49.408;8.702;2022-11-09T10:42:36;15.30;99.90
6903;DHT22;20232;49.408;8.702;2022-11-09T10:45:34;15.40;99.90
6903;DHT22;20232;49.408;8.702;2022-11-09T10:47:59;15.40;99.90
6903;DHT22;20232;49.408;8.702;2022-11-09T10:50:33;15.40;99.90
6903;DHT22;20232;49.408;8.702;2022-11-09T10:53:09;15.50;99.90
6903;DHT22;20232;49.408;8.702;2022-11-09T10:55:35;15.60;99.90
6903;DHT22;20232;49.408;8.702;2022-11-09T10:58:28;15.50;99.90
6903;DHT22;20232;49.408;8.702;2022-11-09T11:01:00;15.50;99.90
6903;DHT22;20232;49.408;8.702;2022-11-09T11:03:28;15.70;99.90
6903;DHT22;20232;49.408;8.702;2022-11-09T11:08:31;15.80;99.90
6903;DHT22;20232;49.408;8.702;2022-11-09T11:11:29;15.80;99.90
6903;DHT22;20232;49.408;8.702;2022-11-09T11:14:31;15.80;99.90
6903;DHT22;20232;49.408;8.702;2022-11-09T11:16:57;15.80;99.90
6903;DHT22;20232;49.408;8.702;2022-11-09T11:19:33;15.80;99.90
6903;DHT22;20232;49.408;8.702;2022-11-09T11:27:42;16.20;99.90
6903;DHT22;20232;49.408;8.702;2022-11-09T11:30:28;16.30;99.90
6903;DHT22;20232;49.408;8.702;2022-11-09T11:32:56;16.40;99.90
6903;DHT22;20232;49.408;8.702;2022-11-09T11:38:18;16.50;99.90
6903;DHT22;20232;49.408;8.702;2022-11-09T11:41:12;16.50;99.90
6903;DHT22;20232;49.408;8.702;2022-11-09T11:46:45;16.60;99.90
6903;DHT22;20232;49.408;8.702;2022-11-09T12:00:09;16.60;99.90
6903;DHT22;20232;49.408;8.702;2022-11-09T12:03:06;16.50;99.90
6903;DHT22;20232;49.408;8.702;2022-11-09T12:19:50;16.00;99.90
6903;DHT22;20232;49.408;8.702;2022-11-09T12:28:22;16.00;99.90
6903;DHT22;20232;49.408;8.702;2022-11-09T12:31:09;16.10;99.90
6903;DHT22;20232;49.408;8.702;2022-11-09T12:33:57;16.10;99.90
6903;DHT22;20232;49.408;8.702;2022-11-09T12:36:31;16.10;99.90
6903;DHT22;20232;49.408;8.702;2022-11-09T12:41:35;16.10;99.90
6903;DHT22;20232;49.408;8.702;2022-11-09T12:46:39;16.00;99.90
6903;DHT22;20232;49.408;8.702;2022-11-09T12:49:18;15.90;99.90
6903;DHT22;20232;49.408;8.702;2022-11-09T12:51:46;15.90;99.90
6903;DHT22;20232;49.408;8.702;2022-11-09T12:54:12;15.80;99.90
6903;DHT22;20232;49.408;8.702;2022-11-09T12:56:58;15.80;99.90
6903;DHT22;20232;49.408;8.702;2022-11-09T13:01:55;15.80;99.90
6903;DHT22;20232;49.408;8.702;2022-11-09T13:04:23;15.90;99.90
6903;DHT22;20232;49.408;8.702;2022-11-09T13:07:17;15.90;99.90
6903;DHT22;20232;49.408;8.702;2022-11-09T13:09:43;15.90;99.90
6903;DHT22;20232;49.408;8.702;2022-11-09T13:12:33;15.90;99.90
6903;DHT22;20232;49.408;8.702;2022-11-09T13:15:27;15.90;99.90
6903;DHT22;20232;49.408;8.702;2022-11-09T13:18:04;15.80;99.90
6903;DHT22;20232;49.408;8.702;2022-11-09T13:20:46;15.80;99.90
6903;DHT22;20232;49.408;8.702;2022-11-09T13:23:32;15.70;99.90
6903;DHT22;20232;49.408;8.702;2022-11-09T13:26:00;15.80;99.90
6903;DHT22;20232;49.408;8.702;2022-11-09T13:30:58;15.70;99.90
6903;DHT22;20232;49.408;8.702;2022-11-09T13:33:29;15.70;99.90
6903;DHT22;20232;49.408;8.702;2022-11-09T13:36:12;15.80;99.90
6903;DHT22;20232;49.408;8.702;2022-11-09T13:38:38;15.70;99.90
6903;DHT22;20232;49.408;8.702;2022-11-09T13:44:13;15.70;99.90
6903;DHT22;20232;49.408;8.702;2022-11-09T13:46:40;15.70;99.90
6903;DHT22;20232;49.408;8.702;2022-11-09T13:49:38;15.80;99.90
6903;DHT22;20232;49.408;8.702;2022-11-09T13:52:04;15.70;99.90
6903;DHT22;20232;49.408;8.702;2022-11-09T13:54:34;15.70;99.90
6903;DHT22;20232;49.408;8.702;2022-11-09T13:57:03;15.70;99.90
6903;DHT22;20232;49.408;8.702;2022-11-09T13:59:37;15.70;99.90
6903;DHT22;20232;49.408;8.702;2022-11-09T14:02:22;15.70;99.90
6903;DHT22;20232;49.408;8.702;2022-11-09T14:04:47;15.70;99.90
6903;DHT22;20232;49.408;8.702;2022-11-09T14:07:25;15.70;99.90
6903;DHT22;20232;49.408;8.702;2022-11-09T14:22:39;15.70;99.90
6903;DHT22;20232;49.408;8.702;2022-11-09T14:25:19;15.70;99.90
6903;DHT22;20232;49.408;8.702;2022-11-09T14:27:49;15.60;99.90
6903;DHT22;20232;49.408;8.702;2022-11-09T14:30:31;15.60;99.90
6903;DHT22;20232;49.408;8.702;2022-11-09T14:32:57;15.60;99.90
6903;DHT22;20232;49.408;8.702;2022-11-09T14:37:52;15.50;99.90
6903;DHT22;20232;49.408;8.702;2022-11-09T14:40:30;15.50;99.90
6903;DHT22;20232;49.408;8.702;2022-11-09T14:43:22;15.40;99.90
6903;DHT22;20232;49.408;8.702;2022-11-09T14:46:00;15.40;99.90
6903;DHT22;20232;49.408;8.702;2022-11-09T14:48:28;15.40;99.90
6903;DHT22;20232;49.408;8.702;2022-11-09T14:50:56;15.30;99.90
6903;DHT22;20232;49.408;8.702;2022-11-09T14:53:30;15.30;99.90
6903;DHT22;20232;49.408;8.702;2022-11-09T14:55:59;15.20;99.90
6903;DHT22;20232;49.408;8.702;2022-11-09T14:58:27;15.20;99.90
6903;DHT22;20232;49.408;8.702;2022-11-09T15:04:08;15.10;99.90
6903;DHT22;20232;49.408;8.702;2022-11-09T15:06:35;15.10;99.90
6903;DHT22;20232;49.408;8.702;2022-11-09T15:09:17;15.00;99.90
6903;DHT22;20232;49.408;8.702;2022-11-09T15:11:43;15.00;99.90
6903;DHT22;20232;49.408;8.702;2022-11-09T15:16:45;14.90;99.90
6903;DHT22;20232;49.408;8.702;2022-11-09T15:19:35;14.90;99.90
6903;DHT22;20232;49.408;8.702;2022-11-09T15:22:02;14.80;99.90
6903;DHT22;20232;49.408;8.702;2022-11-09T15:24:28;14.80;99.90
6903;DHT22;20232;49.408;8.702;2022-11-09T15:27:30;14.80;99.90
6903;DHT22;20232;49.408;8.702;2022-11-09T15:29:56;14.70;99.90
6903;DHT22;20232;49.408;8.702;2022-11-09T15:32:21;14.70;99.90
6903;DHT22;20232;49.408;8.702;2022-11-09T15:34:55;14.70;99.90
6903;DHT22;20232;49.408;8.702;2022-11-09T15:37:28;14.70;99.90
6903;DHT22;20232;49.408;8.702;2022-11-09T15:39:57;14.60;99.90
6903;DHT22;20232;49.408;8.702;2022-11-09T15:42:24;14.60;99.90
6903;DHT22;20232;49.408;8.702;2022-11-09T15:44:55;14.60;99.90
6903;DHT22;20232;49.408;8.702;2022-11-09T15:47:22;14.60;99.90
6903;DHT22;20232;49.408;8.702;2022-11-09T15:49:48;14.60;99.90
6903;DHT22;20232;49.408;8.702;2022-11-09T15:52:14;14.60;99.90
6903;DHT22;20232;49.408;8.702;2022-11-09T15:54:40;14.60;99.90
6903;DHT22;20232;49.408;8.702;2022-11-09T15:57:05;14.60;99.90
6903;DHT22;20232;49.408;8.702;2022-11-09T15:59:31;14.50;99.90
6903;DHT22;20232;49.408;8.702;2022-11-09T16:01:57;14.60;99.90
6903;DHT22;20232;49.408;8.702;2022-11-09T16:04:22;14.50;99.90
6903;DHT22;20232;49.408;8.702;2022-11-09T16:06:48;14.50;99.90
6903;DHT22;20232;49.408;8.702;2022-11-09T16:09:14;14.50;99.90
6903;DHT22;20232;49.408;8.702;2022-11-09T16:11:40;14.40;99.90
6903;DHT22;20232;49.408;8.702;2022-11-09T16:14:06;14.30;99.90
6903;DHT22;20232;49.408;8.702;2022-11-09T16:16:32;14.30;99.90
6903;DHT22;20232;49.408;8.702;2022-11-09T16:18:58;14.30;99.90
6903;DHT22;20232;49.408;8.702;2022-11-09T16:21:24;14.30;99.90
6903;DHT22;20232;49.408;8.702;2022-11-09T16:23:50;14.30;99.90
6903;DHT22;20232;49.408;8.702;2022-11-09T16:26:17;14.30;99.90
6903;DHT22;20232;49.408;8.702;2022-11-09T16:28:43;14.20;99.90
6903;DHT22;20232;49.408;8.702;2022-11-09T16:31:10;14.20;99.90
6903;DHT22;20232;49.408;8.702;2022-11-09T16:33:36;14.20;99.90
6903;DHT22;20232;49.408;8.702;2022-11-09T16:36:05;14.20;99.90
6903;DHT22;20232;49.408;8.702;2022-11-09T16:38:36;14.20;99.90
6903;DHT22;20232;49.408;8.702;2022-11-09T16:41:03;14.20;99.90
6903;DHT22;20232;49.408;8.702;2022-11-09T16:43:30;14.20;99.90
6903;DHT22;20232;49.408;8.702;2022-11-09T16:45:56;14.20;99.90
6903;DHT22;20232;49.408;8.702;2022-11-09T16:48:23;14.20;99.90
6903;DHT22;20232;49.408;8.702;2022-11-09T16:50:48;14.20;99.90
6903;DHT22;20232;49.408;8.702;2022-11-09T16:53:14;14.20;99.90
6903;DHT22;20232;49.408;8.702;2022-11-09T16:55:40;14.20;99.90
6903;DHT22;20232;49.408;8.702;2022-11-09T16:58:05;14.20;99.90
6903;DHT22;20232;49.408;8.702;2022-11-09T17:00:31;14.10;99.90
6903;DHT22;20232;49.408;8.702;2022-11-09T17:03:00;14.10;99.90
6903;DHT22;20232;49.408;8.702;2022-11-09T17:05:27;14.10;99.90
6903;DHT22;20232;49.408;8.702;2022-11-09T17:07:54;14.10;99.90
6903;DHT22;20232;49.408;8.702;2022-11-09T17:10:19;14.10;99.90
6903;DHT22;20232;49.408;8.702;2022-11-09T17:12:45;14.10;99.90
6903;DHT22;20232;49.408;8.702;2022-11-09T17:15:10;14.10;99.90
6903;DHT22;20232;49.408;8.702;2022-11-09T17:17:36;14.10;99.90
6903;DHT22;20232;49.408;8.702;2022-11-09T17:20:02;14.10;99.90
6903;DHT22;20232;49.408;8.702;2022-11-09T17:22:30;14.10;99.90
6903;DHT22;20232;49.408;8.702;2022-11-09T17:24:55;14.10;99.90
6903;DHT22;20232;49.408;8.702;2022-11-09T17:27:21;14.10;99.90
6903;DHT22;20232;49.408;8.702;2022-11-09T17:29:47;14.10;99.90
6903;DHT22;20232;49.408;8.702;2022-11-09T17:32:12;14.10;99.90
6903;DHT22;20232;49.408;8.702;2022-11-09T17:34:38;14.10;99.90
6903;DHT22;20232;49.408;8.702;2022-11-09T17:37:03;14.10;99.90
6903;DHT22;20232;49.408;8.702;2022-11-09T17:39:29;14.10;99.90
6903;DHT22;20232;49.408;8.702;2022-11-09T17:41:54;14.10;99.90
6903;DHT22;20232;49.408;8.702;2022-11-09T17:44:20;14.00;99.90
6903;DHT22;20232;49.408;8.702;2022-11-09T17:46:47;13.90;99.90
6903;DHT22;20232;49.408;8.702;2022-11-09T17:49:12;13.90;99.90
6903;DHT22;20232;49.408;8.702;2022-11-09T17:51:38;13.80;99.90
6903;DHT22;20232;49.408;8.702;2022-11-09T17:54:04;13.70;99.90
6903;DHT22;20232;49.408;8.702;2022-11-09T17:56:31;13.70;99.90
6903;DHT22;20232;49.408;8.702;2022-11-09T17:58:57;13.60;99.90
6903;DHT22;20232;49.408;8.702;2022-11-09T18:01:23;13.60;99.90
6903;DHT22;20232;49.408;8.702;2022-11-09T18:03:48;13.60;99.90
6903;DHT22;20232;49.408;8.702;2022-11-09T18:06:19;13.50;99.90
6903;DHT22;20232;49.408;8.702;2022-11-09T18:08:46;13.50;99.90
6903;DHT22;20232;49.408;8.702;2022-11-09T18:11:12;13.50;99.90
6903;DHT22;20232;49.408;8.702;2022-11-09T18:13:38;13.50;99.90
6903;DHT22;20232;49.408;8.702;2022-11-09T18:16:06;13.50;99.90
6903;DHT22;20232;49.408;8.702;2022-11-09T18:18:31;13.50;99.90
6903;DHT22;20232;49.408;8.702;2022-11-09T18:20:57;13.40;99.90
6903;DHT22;20232;49.408;8.702;2022-11-09T18:23:23;13.30;99.90
6903;DHT22;20232;49.408;8.702;2022-11-09T18:25:58;13.30;99.90
6903;DHT22;20232;49.408;8.702;2022-11-09T18:28:24;13.30;99.90
6903;DHT22;20232;49.408;8.702;2022-11-09T18:30:49;13.30;99.90
6903;DHT22;20232;49.408;8.702;2022-11-09T18:33:15;13.30;99.90
6903;DHT22;20232;49.408;8.702;2022-11-09T18:35:40;13.30;99.90
6903;DHT22;20232;49.408;8.702;2022-11-09T18:38:06;13.30;99.90
6903;DHT22;20232;49.408;8.702;2022-11-09T18:40:34;13.30;99.90
6903;DHT22;20232;49.408;8.702;2022-11-09T18:43:00;13.30;99.90
6903;DHT22;20232;49.408;8.702;2022-11-09T18:45:26;13.30;99.90
6903;DHT22;20232;49.408;8.702;2022-11-09T18:47:51;13.30;99.90
6903;DHT22;20232;49.408;8.702;2022-11-09T18:50:17;13.30;99.90
6903;DHT22;20232;49.408;8.702;2022-11-09T18:52:44;13.30;99.90
6903;DHT22;20232;49.408;8.702;2022-11-09T18:55:09;13.20;99.90
6903;DHT22;20232;49.408;8.702;2022-11-09T18:57:35;13.20;99.90
6903;DHT22;20232;49.408;8.702;2022-11-09T19:00:00;13.20;99.90
6903;DHT22;20232;49.408;8.702;2022-11-09T19:02:26;13.20;99.90
6903;DHT22;20232;49.408;8.702;2022-11-09T19:04:52;13.20;99.90
6903;DHT22;20232;49.408;8.702;2022-11-09T19:07:17;13.20;99.90
6903;DHT22;20232;49.408;8.702;2022-11-09T19:09:43;13.20;99.90
6903;DHT22;20232;49.408;8.702;2022-11-09T19:12:09;13.20;99.90
6903;DHT22;20232;49.408;8.702;2022-11-09T19:14:36;13.20;99.90
6903;DHT22;20232;49.408;8.702;2022-11-09T19:17:14;13.30;99.90
6903;DHT22;20232;49.408;8.702;2022-11-09T19:19:40;13.40;99.90
6903;DHT22;20232;49.408;8.702;2022-11-09T19:22:16;13.40;99.90
6903;DHT22;20232;49.408;8.702;2022-11-09T19:24:43;13.40;99.90
6903;DHT22;20232;49.408;8.702;2022-11-09T19:27:09;13.40;99.90
6903;DHT22;20232;49.408;8.702;2022-11-09T19:29:35;13.40;99.90
6903;DHT22;20232;49.408;8.702;2022-11-09T19:32:00;13.40;99.90
6903;DHT22;20232;49.408;8.702;2022-11-09T19:34:26;13.30;99.90
6903;DHT22;20232;49.408;8.702;2022-11-09T19:36:52;13.30;99.90
6903;DHT22;20232;49.408;8.702;2022-11-09T19:39:17;13.30;99.90
6903;DHT22;20232;49.408;8.702;2022-11-09T19:41:43;13.20;99.90
6903;DHT22;20232;49.408;8.702;2022-11-09T19:44:09;13.20;99.90
6903;DHT22;20232;49.408;8.702;2022-11-09T19:46:37;13.30;99.90
6903;DHT22;20232;49.408;8.702;2022-11-09T19:49:03;13.30;99.90
6903;DHT22;20232;49.408;8.702;2022-11-09T19:51:30;13.30;99.90
6903;DHT22;20232;49.408;8.702;2022-11-09T19:53:58;13.30;99.90
6903;DHT22;20232;49.408;8.702;2022-11-09T19:56:25;13.30;99.90
6903;DHT22;20232;49.408;8.702;2022-11-09T19:58:53;13.30;99.90
6903;DHT22;20232;49.408;8.702;2022-11-09T20:01:19;13.30;99.90
6903;DHT22;20232;49.408;8.702;2022-11-09T20:03:49;13.30;99.90
6903;DHT22;20232;49.408;8.702;2022-11-09T20:06:15;13.30;99.90
6903;DHT22;20232;49.408;8.702;2022-11-09T20:08:41;13.20;99.90
6903;DHT22;20232;49.408;8.702;2022-11-09T20:11:12;13.20;99.90
6903;DHT22;20232;49.408;8.702;2022-11-09T20:13:57;13.20;99.90
6903;DHT22;20232;49.408;8.702;2022-11-09T20:16:23;13.10;99.90
6903;DHT22;20232;49.408;8.702;2022-11-09T20:18:48;13.10;99.90
6903;DHT22;20232;49.408;8.702;2022-11-09T20:21:14;13.00;99.90
6903;DHT22;20232;49.408;8.702;2022-11-09T20:23:40;13.00;99.90
6903;DHT22;20232;49.408;8.702;2022-11-09T20:26:07;13.00;99.90
6903;DHT22;20232;49.408;8.702;2022-11-09T20:28:33;13.00;99.90
6903;DHT22;20232;49.408;8.702;2022-11-09T20:30:58;12.90;99.90
6903;DHT22;20232;49.408;8.702;2022-11-09T20:33:24;12.90;99.90
6903;DHT22;20232;49.408;8.702;2022-11-09T20:35:53;12.80;99.90
6903;DHT22;20232;49.408;8.702;2022-11-09T20:38:19;12.70;99.90
6903;DHT22;20232;49.408;8.702;2022-11-09T20:40:55;12.70;99.90
6903;DHT22;20232;49.408;8.702;2022-11-09T20:43:22;12.60;99.90
6903;DHT22;20232;49.408;8.702;2022-11-09T20:45:48;12.50;99.90
6903;DHT22;20232;49.408;8.702;2022-11-09T20:48:14;12.50;99.90
6903;DHT22;20232;49.408;8.702;2022-11-09T20:50:39;12.40;99.90
6903;DHT22;20232;49.408;8.702;2022-11-09T20:53:05;12.40;99.90
6903;DHT22;20232;49.408;8.702;2022-11-09T20:55:30;12.40;99.90
6903;DHT22;20232;49.408;8.702;2022-11-09T20:57:56;12.40;99.90
6903;DHT22;20232;49.408;8.702;2022-11-09T21:00:22;12.30;99.90
6903;DHT22;20232;49.408;8.702;2022-11-09T21:02:47;12.30;99.90
6903;DHT22;20232;49.408;8.702;2022-11-09T21:05:13;12.20;99.90
6903;DHT22;20232;49.408;8.702;2022-11-09T21:07:39;12.30;99.90
6903;DHT22;20232;49.408;8.702;2022-11-09T21:10:05;12.40;99.90
6903;DHT22;20232;49.408;8.702;2022-11-09T21:12:30;12.50;99.90
6903;DHT22;20232;49.408;8.702;2022-11-09T21:14:56;12.50;99.90
6903;DHT22;20232;49.408;8.702;2022-11-09T21:17:22;12.60;99.90
6903;DHT22;20232;49.408;8.702;2022-11-09T21:19:47;12.70;99.90
6903;DHT22;20232;49.408;8.702;2022-11-09T21:22:13;13.00;99.90
6903;DHT22;20232;49.408;8.702;2022-11-09T21:24:38;13.10;99.90
6903;DHT22;20232;49.408;8.702;2022-11-09T21:27:22;13.10;99.90
6903;DHT22;20232;49.408;8.702;2022-11-09T21:30:07;13.10;99.90
6903;DHT22;20232;49.408;8.702;2022-11-09T21:32:33;13.10;99.90
6903;DHT22;20232;49.408;8.702;2022-11-09T21:34:58;13.00;99.90
6903;DHT22;20232;49.408;8.702;2022-11-09T21:37:24;13.00;99.90
6903;DHT22;20232;49.408;8.702;2022-11-09T21:39:49;12.90;99.90
6903;DHT22;20232;49.408;8.702;2022-11-09T21:42:15;12.80;99.90
6903;DHT22;20232;49.408;8.702;2022-11-09T21:44:40;12.70;99.90
6903;DHT22;20232;49.408;8.702;2022-11-09T21:47:07;12.60;99.90
6903;DHT22;20232;49.408;8.702;2022-11-09T21:49:32;12.40;99.90
6903;DHT22;20232;49.408;8.702;2022-11-09T21:51:59;12.30;99.90
6903;DHT22;20232;49.408;8.702;2022-11-09T21:54:24;12.30;99.90
6903;DHT22;20232;49.408;8.702;2022-11-09T21:56:51;12.20;99.90
6903;DHT22;20232;49.408;8.702;2022-11-09T21:59:17;12.00;99.90
6903;DHT22;20232;49.408;8.702;2022-11-09T22:01:43;11.90;99.90
6903;DHT22;20232;49.408;8.702;2022-11-09T22:04:09;11.90;99.90
6903;DHT22;20232;49.408;8.702;2022-11-09T22:06:35;11.80;99.90
6903;DHT22;20232;49.408;8.702;2022-11-09T22:09:07;11.90;99.90
6903;DHT22;20232;49.408;8.702;2022-11-09T22:11:37;12.00;99.90
6903;DHT22;20232;49.408;8.702;2022-11-09T22:14:22;12.10;99.90
6903;DHT22;20232;49.408;8.702;2022-11-09T22:17:07;12.20;99.90
6903;DHT22;20232;49.408;8.702;2022-11-09T22:19:33;12.30;99.90
6903;DHT22;20232;49.408;8.702;2022-11-09T22:22:17;12.30;99.90
6903;DHT22;20232;49.408;8.702;2022-11-09T22:24:43;12.40;99.90
6903;DHT22;20232;49.408;8.702;2022-11-09T22:27:09;12.50;99.90
6903;DHT22;20232;49.408;8.702;2022-11-09T22:29:35;12.50;99.90
6903;DHT22;20232;49.408;8.702;2022-11-09T22:32:00;12.60;99.90
6903;DHT22;20232;49.408;8.702;2022-11-09T22:34:26;12.60;99.90